Capitol Logistics 929

Operating for DHL



LMML
Malta International Airport
Malta, MT
EDDK
Cologne Bonn Airport
Cologne, DE

Route Details

Aircraft Information
Group: European Fleet
Types: A30F,A31F,B738
Route Data
Demand: V
Distance: 956nm
Duration: 2h 39m
Recm'd Route: GZO3D GZO M622 ADEXI RONAB MAMAR ABESI N851 ROLSA Z162 ZUE T163 KOVAN T844 ASKIK/N0451F240 T840 GULKO GULK1S
Origin Wx: LMML 070315Z 32026G40KT 9999 FEW029 12/07 Q1008 NOSIG
Dest. Wx: EDDK 070250Z VRB04KT 9999 -RA BKN008 OVC012 02/02 Q1006 BECMG 27010KT SCT030
Notes:

Financial History
Total Freight: 152,766lbs
Average Load: 50,922lbs/flt
Fuel Used: 57,972lbs
Avg. Fuel Used: 19,324lbs/flt
Fuel Expense: $21,475
Avg. Fuel Expense: $7,158
Avg. Fuel Cost: $0.45/lbs
Total Gross Income: $311,795
Pilot Pay: $597
Total Expenses: $45,132
Total Revenue: $243,740
Average Revenue: $103,931.80